Time;durP1;ratioP1;P1;durP2;ratioP2;P2;SDS_P1;SDS_P2;PMS_P1;PMS_P2;Temp;Humidity;BMP_temperature;BMP_pressure;BME280_temperature;BME280_humidity;BME280_pressure;Samples;Min_cycle;Max_cycle;Signal;HPM_P1;HPM_P2
2021/12/28 00:01:05;;;;;;;0.90;0.90;;;;;;;;;;1879463;76;26277;-32
2021/12/28 00:03:32;;;;;;;0.80;0.80;;;;;;;;;;1881723;76;27369;-31
2021/12/28 00:06:00;;;;;;;0.82;0.82;;;;;;;;;;1889572;76;26809;-31
2021/12/28 00:08:28;;;;;;;0.68;0.68;;;;;;;;;;1890150;76;26346;-31
2021/12/28 00:10:56;;;;;;;0.80;0.80;;;;;;;;;;1890029;75;26248;-31
2021/12/28 00:13:23;;;;;;;0.88;0.88;;;;;;;;;;1890134;75;26311;-33
2021/12/28 00:18:26;;;;;;;0.70;0.70;;;;;;;;;;1889967;76;26808;-32
2021/12/28 00:20:55;;;;;;;1.50;0.90;;;;;;;;;;1885227;75;26647;-32
2021/12/28 00:23:24;;;;;;;0.80;0.80;;;;;;;;;;1880617;76;26826;-32
2021/12/28 00:25:53;;;;;;;0.60;0.60;;;;;;;;;;1880876;76;26233;-33
2021/12/28 00:28:21;;;;;;;0.80;0.80;;;;;;;;;;1886183;76;27452;-32
2021/12/28 00:30:49;;;;;;;0.80;0.80;;;;;;;;;;1883350;76;26298;-32
2021/12/28 00:33:18;;;;;;;0.80;0.80;;;;;;;;;;1889758;76;26262;-33
2021/12/28 00:35:45;;;;;;;0.70;0.70;;;;;;;;;;1889075;76;26804;-33
2021/12/28 00:38:15;;;;;;;0.70;0.70;;;;;;;;;;1861474;76;26295;-32
2021/12/28 00:40:42;;;;;;;0.78;0.78;;;;;;;;;;1888045;76;26851;-32
2021/12/28 00:43:10;;;;;;;0.60;0.60;;;;;;;;;;1890094;76;26274;-32
2021/12/28 00:45:37;;;;;;;0.60;0.60;;;;;;;;;;1890291;76;26266;-32
2021/12/28 00:48:05;;;;;;;1.45;0.70;;;;;;;;;;1890043;76;26734;-33
2021/12/28 00:50:32;;;;;;;0.60;0.60;;;;;;;;;;1890291;76;26743;-32
2021/12/28 00:52:59;;;;;;;0.78;0.72;;;;;;;;;;1890042;76;26316;-33
2021/12/28 00:55:27;;;;;;;0.72;0.72;;;;;;;;;;1890145;76;26258;-33
2021/12/28 00:57:54;;;;;;;0.90;0.70;;;;;;;;;;1889679;76;26197;-33
2021/12/28 01:00:23;;;;;;;0.70;0.70;;;;;;;;;;1889522;76;26256;-33
2021/12/28 01:02:50;;;;;;;0.70;0.70;;;;;;;;;;1882022;76;26284;-33
2021/12/28 01:05:19;;;;;;;0.70;0.70;;;;;;;;;;1857538;77;26396;-33
2021/12/28 01:07:46;;;;;;;0.53;0.53;;;;;;;;;;1857866;77;26291;-32
2021/12/28 01:10:15;;;;;;;0.70;0.70;;;;;;;;;;1857642;77;26334;-32
2021/12/28 01:12:42;;;;;;;0.68;0.68;;;;;;;;;;1885304;75;26635;-33
2021/12/28 01:15:10;;;;;;;0.60;0.60;;;;;;;;;;1885861;76;26610;-32
2021/12/28 01:17:38;;;;;;;0.60;0.60;;;;;;;;;;1851221;76;26674;-32
2021/12/28 01:20:07;;;;;;;0.78;0.78;;;;;;;;;;1844869;78;26243;-32
2021/12/28 01:22:35;;;;;;;0.60;0.60;;;;;;;;;;1845293;78;26314;-32
2021/12/28 01:25:03;;;;;;;0.70;0.70;;;;;;;;;;1845219;78;26754;-33
2021/12/28 01:27:31;;;;;;;0.70;0.70;;;;;;;;;;1871558;76;26252;-32
2021/12/28 01:29:58;;;;;;;0.40;0.40;;;;;;;;;;1880819;76;26729;-33
2021/12/28 01:32:25;;;;;;;1.20;0.60;;;;;;;;;;1880797;76;26319;-32
2021/12/28 01:34:53;;;;;;;0.68;0.68;;;;;;;;;;1880796;76;26271;-33
2021/12/28 01:37:20;;;;;;;0.60;0.60;;;;;;;;;;1878464;76;26749;-32
2021/12/28 01:39:47;;;;;;;0.50;0.50;;;;;;;;;;1880303;76;26719;-32
2021/12/28 01:42:15;;;;;;;0.53;0.53;;;;;;;;;;1877687;75;26261;-32
2021/12/28 01:44:42;;;;;;;0.40;0.40;;;;;;;;;;1870992;76;27189;-32
2021/12/28 01:47:12;;;;;;;0.55;0.55;;;;;;;;;;1870757;76;26273;-32
2021/12/28 01:49:39;;;;;;;0.60;0.60;;;;;;;;;;1870879;76;26407;-33
2021/12/28 01:52:07;;;;;;;0.60;0.60;;;;;;;;;;1879154;76;26718;-32
2021/12/28 01:54:34;;;;;;;0.62;0.62;;;;;;;;;;1880816;76;26778;-33
2021/12/28 01:57:01;;;;;;;0.60;0.60;;;;;;;;;;1880844;76;26261;-32
2021/12/28 01:59:29;;;;;;;0.70;0.70;;;;;;;;;;1880939;76;26284;-33
2021/12/28 02:01:56;;;;;;;0.70;0.70;;;;;;;;;;1880827;76;26276;-32
2021/12/28 02:04:25;;;;;;;0.60;0.60;;;;;;;;;;1876781;76;26769;-32
2021/12/28 02:06:54;;;;;;;0.45;0.45;;;;;;;;;;1876538;76;26714;-33
2021/12/28 02:09:22;;;;;;;0.45;0.45;;;;;;;;;;1876273;76;26596;-32
2021/12/28 02:11:49;;;;;;;0.50;0.50;;;;;;;;;;1878429;76;26186;-32
2021/12/28 02:14:16;;;;;;;0.50;0.50;;;;;;;;;;1880267;75;26738;-33
2021/12/28 02:16:44;;;;;;;0.68;0.68;;;;;;;;;;1880595;75;26659;-33
2021/12/28 02:19:13;;;;;;;0.50;0.50;;;;;;;;;;1888520;76;26308;-33
2021/12/28 02:21:40;;;;;;;0.50;0.50;;;;;;;;;;1890074;76;26199;-32
2021/12/28 02:24:08;;;;;;;0.60;0.60;;;;;;;;;;1882790;76;26331;-33
2021/12/28 02:26:36;;;;;;;0.50;0.50;;;;;;;;;;1868621;76;26322;-33
2021/12/28 02:29:05;;;;;;;0.60;0.60;;;;;;;;;;1889923;76;26280;-33
2021/12/28 02:31:33;;;;;;;0.62;0.62;;;;;;;;;;1884084;76;26264;-33
2021/12/28 02:34:01;;;;;;;0.50;0.50;;;;;;;;;;1889982;76;26791;-33
2021/12/28 02:36:29;;;;;;;0.65;0.65;;;;;;;;;;1882882;76;26344;-32
2021/12/28 02:38:56;;;;;;;0.53;0.53;;;;;;;;;;1850358;76;26306;-32
2021/12/28 02:41:24;;;;;;;0.50;0.50;;;;;;;;;;1848903;77;26287;-33
2021/12/28 02:43:53;;;;;;;0.47;0.47;;;;;;;;;;1848771;76;26302;-32
2021/12/28 02:46:20;;;;;;;0.40;0.40;;;;;;;;;;1855625;74;26284;-32
2021/12/28 02:48:47;;;;;;;0.57;0.57;;;;;;;;;;1872210;74;26323;-33
2021/12/28 02:51:15;;;;;;;0.42;0.42;;;;;;;;;;1858229;77;25703;-32
2021/12/28 02:53:43;;;;;;;0.50;0.50;;;;;;;;;;1858189;77;26264;-33
2021/12/28 02:56:12;;;;;;;0.50;0.50;;;;;;;;;;1864313;76;26249;-32
2021/12/28 02:58:41;;;;;;;0.50;0.50;;;;;;;;;;1896692;74;26586;-32
2021/12/28 03:01:16;;;;;;;0.40;0.40;;;;;;;;;;1884706;74;26399;-33
2021/12/28 03:03:44;;;;;;;0.50;0.50;;;;;;;;;;1886756;76;26783;-32
2021/12/28 03:06:13;;;;;;;0.50;0.50;;;;;;;;;;1872753;76;26295;-33
2021/12/28 03:08:43;;;;;;;0.40;0.40;;;;;;;;;;1879317;76;26314;-32
2021/12/28 03:11:12;;;;;;;0.50;0.50;;;;;;;;;;1883077;76;26286;-32
2021/12/28 03:13:41;;;;;;;0.50;0.50;;;;;;;;;;1867566;76;26853;-33
2021/12/28 03:16:08;;;;;;;0.50;0.50;;;;;;;;;;1857448;76;26279;-32
2021/12/28 03:18:36;;;;;;;0.50;0.50;;;;;;;;;;1872305;76;26292;-33
2021/12/28 03:21:05;;;;;;;0.47;0.47;;;;;;;;;;1872991;76;26262;-32
2021/12/28 03:23:32;;;;;;;0.42;0.42;;;;;;;;;;1872372;76;26311;-33
2021/12/28 03:26:00;;;;;;;0.50;0.50;;;;;;;;;;1873837;76;26822;-32
2021/12/28 03:28:29;;;;;;;0.50;0.50;;;;;;;;;;1889443;76;26319;-32
2021/12/28 03:30:57;;;;;;;0.53;0.53;;;;;;;;;;1888681;76;26253;-33
2021/12/28 03:33:26;;;;;;;0.60;0.60;;;;;;;;;;1860986;74;26293;-33
2021/12/28 03:35:54;;;;;;;0.60;0.60;;;;;;;;;;1882477;76;26281;-33
2021/12/28 03:38:21;;;;;;;0.60;0.60;;;;;;;;;;1872965;76;26531;-32
2021/12/28 03:40:49;;;;;;;0.45;0.45;;;;;;;;;;1873466;76;26230;-32
2021/12/28 03:43:17;;;;;;;0.53;0.53;;;;;;;;;;1879645;75;26534;-33
2021/12/28 03:45:44;;;;;;;0.50;0.50;;;;;;;;;;1887296;75;26289;-32
2021/12/28 03:48:12;;;;;;;0.68;0.68;;;;;;;;;;1890144;76;26261;-33
2021/12/28 03:50:39;;;;;;;0.60;0.60;;;;;;;;;;1890442;76;26261;-32
2021/12/28 03:53:07;;;;;;;0.50;0.50;;;;;;;;;;1888153;76;26238;-33
2021/12/28 03:55:35;;;;;;;0.47;0.47;;;;;;;;;;1890697;76;26248;-32
2021/12/28 03:58:03;;;;;;;0.78;0.78;;;;;;;;;;1876631;76;26428;-32
2021/12/28 04:00:32;;;;;;;0.50;0.50;;;;;;;;;;1876120;76;26257;-32
2021/12/28 04:02:59;;;;;;;0.60;0.60;;;;;;;;;;1878053;76;26320;-32
2021/12/28 04:05:27;;;;;;;0.50;0.50;;;;;;;;;;1883345;76;26737;-32
2021/12/28 04:07:55;;;;;;;0.60;0.60;;;;;;;;;;1880820;76;26311;-32
2021/12/28 04:10:30;;;;;;;0.65;0.65;;;;;;;;;;1873267;76;26289;-33
2021/12/28 04:12:51;;;;;;;1.05;0.70;;;;;;;;;;1888063;76;26721;-32
2021/12/28 04:15:18;;;;;;;0.60;0.60;;;;;;;;;;1888333;76;26976;-32
2021/12/28 04:17:46;;;;;;;0.60;0.60;;;;;;;;;;1890293;76;26269;-32
2021/12/28 04:20:15;;;;;;;0.60;0.60;;;;;;;;;;1863419;76;26310;-32
2021/12/28 04:22:42;;;;;;;0.50;0.50;;;;;;;;;;1858253;76;26324;-32
2021/12/28 04:25:11;;;;;;;0.50;0.50;;;;;;;;;;1858212;77;27434;-32
2021/12/28 04:27:38;;;;;;;0.60;0.60;;;;;;;;;;1858282;77;26263;-32
2021/12/28 04:30:07;;;;;;;0.70;0.70;;;;;;;;;;1858109;77;26599;-32
2021/12/28 04:32:35;;;;;;;0.57;0.57;;;;;;;;;;1858325;77;27472;-32
2021/12/28 04:35:03;;;;;;;0.50;0.50;;;;;;;;;;1858050;77;26308;-33
2021/12/28 04:37:31;;;;;;;0.78;0.78;;;;;;;;;;1858072;76;26351;-32
2021/12/28 04:39:58;;;;;;;0.60;0.60;;;;;;;;;;1858242;77;27328;-33
2021/12/28 04:42:28;;;;;;;0.57;0.57;;;;;;;;;;1857907;77;26278;-32
2021/12/28 04:44:55;;;;;;;0.70;0.70;;;;;;;;;;1857914;76;26307;-32
2021/12/28 04:47:22;;;;;;;0.75;0.60;;;;;;;;;;1857886;77;26324;-32
2021/12/28 04:49:49;;;;;;;0.55;0.55;;;;;;;;;;1858251;77;26317;-32
2021/12/28 04:52:17;;;;;;;0.65;0.65;;;;;;;;;;1858014;77;26339;-33
2021/12/28 04:54:44;;;;;;;0.53;0.53;;;;;;;;;;1858144;77;26345;-32
2021/12/28 04:57:12;;;;;;;0.57;0.57;;;;;;;;;;1857894;77;26757;-32
2021/12/28 04:59:39;;;;;;;0.50;0.50;;;;;;;;;;1857912;77;26251;-32
2021/12/28 05:02:06;;;;;;;0.60;0.60;;;;;;;;;;1857972;77;26266;-32
2021/12/28 05:04:34;;;;;;;0.60;0.60;;;;;;;;;;1858145;77;26285;-32
2021/12/28 05:07:01;;;;;;;1.20;0.68;;;;;;;;;;1833662;77;26783;-33
2021/12/28 05:09:29;;;;;;;0.33;0.33;;;;;;;;;;1840508;77;26326;-32
2021/12/28 05:11:56;;;;;;;0.68;0.68;;;;;;;;;;1841358;78;26414;-33
2021/12/28 05:14:23;;;;;;;0.40;0.40;;;;;;;;;;1841177;78;26907;-32
2021/12/28 05:16:51;;;;;;;0.50;0.50;;;;;;;;;;1840659;78;26774;-32
2021/12/28 05:19:18;;;;;;;0.60;0.60;;;;;;;;;;1853088;76;26718;-33
2021/12/28 05:21:45;;;;;;;0.40;0.40;;;;;;;;;;1880853;76;26207;-32
2021/12/28 05:24:12;;;;;;;0.70;0.70;;;;;;;;;;1877411;75;26267;-32
2021/12/28 05:26:40;;;;;;;0.50;0.50;;;;;;;;;;1879474;75;26250;-32
2021/12/28 05:29:07;;;;;;;0.60;0.60;;;;;;;;;;1874974;75;26722;-33
2021/12/28 05:31:35;;;;;;;0.62;0.62;;;;;;;;;;1879111;76;26308;-32
2021/12/28 05:34:07;;;;;;;0.60;0.60;;;;;;;;;;1878211;75;26328;-32
2021/12/28 05:36:33;;;;;;;0.93;0.70;;;;;;;;;;1878819;76;26334;-32
2021/12/28 05:39:00;;;;;;;1.67;0.60;;;;;;;;;;1868325;76;26918;-32
2021/12/28 05:41:28;;;;;;;0.70;0.70;;;;;;;;;;1879190;76;26774;-33
2021/12/28 05:43:55;;;;;;;0.60;0.60;;;;;;;;;;1879097;76;26292;-33
2021/12/28 05:46:22;;;;;;;0.50;0.50;;;;;;;;;;1870662;75;26254;-32
2021/12/28 05:48:49;;;;;;;0.50;0.50;;;;;;;;;;1871259;76;26219;-32
2021/12/28 05:51:17;;;;;;;0.60;0.60;;;;;;;;;;1879023;75;26364;-32
2021/12/28 05:53:44;;;;;;;0.60;0.60;;;;;;;;;;1886343;75;25341;-32
2021/12/28 05:56:11;;;;;;;0.50;0.50;;;;;;;;;;1879495;76;26718;-33
2021/12/28 05:58:38;;;;;;;0.90;0.60;;;;;;;;;;1871375;76;26723;-33
2021/12/28 06:01:06;;;;;;;0.50;0.50;;;;;;;;;;1879527;76;26325;-32
2021/12/28 06:03:34;;;;;;;0.60;0.60;;;;;;;;;;1876127;76;26320;-33
2021/12/28 06:06:01;;;;;;;0.53;0.53;;;;;;;;;;1880918;76;26328;-32
2021/12/28 06:08:28;;;;;;;0.60;0.60;;;;;;;;;;1875196;76;26350;-32
2021/12/28 06:10:56;;;;;;;0.70;0.68;;;;;;;;;;1872091;76;26200;-33
2021/12/28 06:13:23;;;;;;;0.50;0.50;;;;;;;;;;1880806;75;26263;-33
2021/12/28 06:15:51;;;;;;;0.60;0.60;;;;;;;;;;1880186;76;26632;-33
2021/12/28 06:18:18;;;;;;;0.68;0.68;;;;;;;;;;1872027;76;26348;-33
2021/12/28 06:20:46;;;;;;;0.68;0.68;;;;;;;;;;1880632;76;26308;-32
2021/12/28 06:23:13;;;;;;;0.72;0.72;;;;;;;;;;1880755;76;26258;-33
2021/12/28 06:25:41;;;;;;;0.62;0.60;;;;;;;;;;1880947;76;26329;-33
2021/12/28 06:28:09;;;;;;;0.60;0.60;;;;;;;;;;1849118;77;26308;-33
2021/12/28 06:30:36;;;;;;;0.53;0.53;;;;;;;;;;1849289;77;26388;-32
2021/12/28 06:33:04;;;;;;;0.60;0.60;;;;;;;;;;1850729;76;26737;-33
2021/12/28 06:35:31;;;;;;;0.90;0.90;;;;;;;;;;1878531;76;26250;-32
2021/12/28 06:37:59;;;;;;;0.50;0.50;;;;;;;;;;1881003;76;26795;-32
2021/12/28 06:40:27;;;;;;;0.57;0.57;;;;;;;;;;1881125;76;26333;-32
2021/12/28 06:42:55;;;;;;;0.45;0.45;;;;;;;;;;1881146;76;26770;-32
2021/12/28 06:45:22;;;;;;;4.78;0.98;;;;;;;;;;1879300;75;25373;-32
2021/12/28 06:47:50;;;;;;;0.57;0.57;;;;;;;;;;1880915;76;26262;-32
2021/12/28 06:50:17;;;;;;;0.60;0.60;;;;;;;;;;1874508;76;26365;-33
2021/12/28 06:52:45;;;;;;;2.20;0.57;;;;;;;;;;1867178;76;26254;-32
2021/12/28 06:55:12;;;;;;;0.55;0.55;;;;;;;;;;1866824;76;26273;-32
2021/12/28 06:57:40;;;;;;;2.42;0.60;;;;;;;;;;1871377;76;26719;-32
2021/12/28 07:00:12;;;;;;;0.50;0.50;;;;;;;;;;1870673;76;26258;-32
2021/12/28 07:02:39;;;;;;;1.12;0.70;;;;;;;;;;1871008;76;26354;-32
2021/12/28 07:05:07;;;;;;;0.50;0.50;;;;;;;;;;1852543;76;26293;-32
2021/12/28 07:07:35;;;;;;;0.50;0.50;;;;;;;;;;1865935;76;26710;-32
2021/12/28 07:10:04;;;;;;;0.57;0.53;;;;;;;;;;1877865;76;26358;-32
2021/12/28 07:12:31;;;;;;;0.55;0.55;;;;;;;;;;1875371;76;26266;-32
2021/12/28 07:14:59;;;;;;;1.65;0.60;;;;;;;;;;1871080;76;26288;-32
2021/12/28 07:17:29;;;;;;;0.62;0.62;;;;;;;;;;1878976;76;26284;-32
2021/12/28 07:19:56;;;;;;;0.70;0.50;;;;;;;;;;1879186;76;25695;-32
2021/12/28 07:22:23;;;;;;;0.60;0.60;;;;;;;;;;1879714;76;26712;-32
2021/12/28 07:24:50;;;;;;;0.60;0.60;;;;;;;;;;1867425;76;26667;-32
2021/12/28 07:27:18;;;;;;;0.70;0.60;;;;;;;;;;1878789;76;26272;-32
2021/12/28 07:29:45;;;;;;;0.53;0.53;;;;;;;;;;1874506;76;26320;-32
2021/12/28 07:32:12;;;;;;;0.70;0.70;;;;;;;;;;1865808;76;26327;-32
2021/12/28 07:34:39;;;;;;;0.80;0.60;;;;;;;;;;1875640;76;26309;-32
2021/12/28 07:37:07;;;;;;;0.70;0.70;;;;;;;;;;1870249;76;26305;-32
2021/12/28 07:39:34;;;;;;;0.70;0.70;;;;;;;;;;1874909;76;26266;-32
2021/12/28 07:42:01;;;;;;;0.45;0.45;;;;;;;;;;1874911;76;26309;-32
2021/12/28 07:44:29;;;;;;;0.82;0.60;;;;;;;;;;1874757;75;26243;-32
2021/12/28 07:46:56;;;;;;;0.60;0.60;;;;;;;;;;1875252;75;26788;-32
2021/12/28 07:49:24;;;;;;;0.70;0.70;;;;;;;;;;1874529;75;25325;-32
2021/12/28 07:51:51;;;;;;;1.27;0.85;;;;;;;;;;1878873;76;26308;-32
2021/12/28 07:54:18;;;;;;;5.92;0.80;;;;;;;;;;1875324;76;26262;-32
2021/12/28 07:56:46;;;;;;;0.60;0.60;;;;;;;;;;1874310;76;26269;-32
2021/12/28 07:59:13;;;;;;;0.70;0.70;;;;;;;;;;1870608;76;27567;-32
2021/12/28 08:01:41;;;;;;;1.20;0.70;;;;;;;;;;1872747;76;26726;-32
2021/12/28 08:04:08;;;;;;;0.60;0.60;;;;;;;;;;1873099;76;26336;-32
2021/12/28 08:06:35;;;;;;;1.30;0.70;;;;;;;;;;1878603;76;26348;-32
2021/12/28 08:09:03;;;;;;;0.70;0.70;;;;;;;;;;1873258;76;26261;-32
2021/12/28 08:11:31;;;;;;;0.53;0.53;;;;;;;;;;1874466;76;26270;-33
2021/12/28 08:13:58;;;;;;;0.72;0.60;;;;;;;;;;1874971;76;25678;-31
2021/12/28 08:16:25;;;;;;;1.17;0.80;;;;;;;;;;1870542;76;26731;-31
2021/12/28 08:18:53;;;;;;;0.62;0.62;;;;;;;;;;1879256;76;26720;-32
2021/12/28 08:21:21;;;;;;;0.60;0.60;;;;;;;;;;1862719;76;26783;-32
2021/12/28 08:23:48;;;;;;;0.72;0.72;;;;;;;;;;1839700;77;26352;-31
2021/12/28 08:26:16;;;;;;;0.60;0.60;;;;;;;;;;1844543;77;26308;-32
2021/12/28 08:28:44;;;;;;;0.65;0.65;;;;;;;;;;1842830;77;26988;-31
2021/12/28 08:31:11;;;;;;;1.47;0.60;;;;;;;;;;1846740;77;26759;-32
2021/12/28 08:33:38;;;;;;;1.42;0.70;;;;;;;;;;1841255;77;26274;-31
2021/12/28 08:36:06;;;;;;;0.80;0.80;;;;;;;;;;1836792;77;26565;-32
2021/12/28 08:38:34;;;;;;;1.22;0.90;;;;;;;;;;1842840;77;25661;-32
2021/12/28 08:41:02;;;;;;;0.82;0.82;;;;;;;;;;1843091;77;26546;-31
2021/12/28 08:43:29;;;;;;;3.15;0.90;;;;;;;;;;1846776;77;26271;-32
2021/12/28 08:45:56;;;;;;;0.90;0.80;;;;;;;;;;1839318;77;26376;-32
2021/12/28 08:48:24;;;;;;;1.25;0.82;;;;;;;;;;1845844;77;26742;-32
2021/12/28 08:50:51;;;;;;;1.00;1.00;;;;;;;;;;1845324;77;26311;-32
2021/12/28 08:53:18;;;;;;;0.80;0.80;;;;;;;;;;1834930;77;26214;-32
2021/12/28 08:55:46;;;;;;;0.88;0.80;;;;;;;;;;1839055;77;26287;-32
2021/12/28 08:58:15;;;;;;;1.80;0.90;;;;;;;;;;1839125;77;26288;-32
2021/12/28 09:00:42;;;;;;;1.80;1.10;;;;;;;;;;1839134;77;26280;-32
2021/12/28 09:03:09;;;;;;;1.15;1.00;;;;;;;;;;1833882;77;26808;-32
2021/12/28 09:05:37;;;;;;;1.10;1.00;;;;;;;;;;1835018;77;26928;-32
2021/12/28 09:08:08;;;;;;;2.15;1.05;;;;;;;;;;1840445;77;26259;-32
2021/12/28 09:10:35;;;;;;;1.12;0.90;;;;;;;;;;1841042;77;26415;-32
2021/12/28 09:13:02;;;;;;;2.92;1.20;;;;;;;;;;1843851;77;26295;-32
2021/12/28 09:15:30;;;;;;;3.02;1.12;;;;;;;;;;1846004;77;26271;-32
2021/12/28 09:17:57;;;;;;;1.10;1.10;;;;;;;;;;1835235;77;26547;-32
2021/12/28 09:20:26;;;;;;;2.72;1.20;;;;;;;;;;1837088;77;26262;-31
2021/12/28 09:22:56;;;;;;;1.30;1.20;;;;;;;;;;1874409;75;26291;-30
2021/12/28 09:25:23;;;;;;;1.25;1.10;;;;;;;;;;1873011;75;26266;-30
2021/12/28 09:27:51;;;;;;;1.30;1.20;;;;;;;;;;1878765;76;26632;-29
2021/12/28 09:30:19;;;;;;;3.50;1.50;;;;;;;;;;1876139;76;26234;-31
2021/12/28 09:32:46;;;;;;;3.10;1.60;;;;;;;;;;1868004;76;26737;-31
2021/12/28 09:35:14;;;;;;;1.32;1.22;;;;;;;;;;1866254;76;26308;-31
2021/12/28 09:37:42;;;;;;;2.15;1.40;;;;;;;;;;1876244;75;26706;-31
2021/12/28 09:40:11;;;;;;;1.50;1.40;;;;;;;;;;1870620;76;26230;-31
2021/12/28 09:42:38;;;;;;;2.10;1.47;;;;;;;;;;1854924;76;39041;-32
2021/12/28 09:45:07;;;;;;;3.85;1.30;;;;;;;;;;1870707;75;26266;-33
2021/12/28 09:47:34;;;;;;;1.17;1.17;;;;;;;;;;1870540;76;26327;-30
2021/12/28 09:50:01;;;;;;;1.20;1.20;;;;;;;;;;1879588;75;26243;-29
2021/12/28 09:52:29;;;;;;;1.90;1.27;;;;;;;;;;1878269;76;26309;-29
2021/12/28 09:54:56;;;;;;;1.22;1.22;;;;;;;;;;1877375;76;26725;-29
2021/12/28 09:57:23;;;;;;;1.30;1.30;;;;;;;;;;1879246;76;26192;-29
2021/12/28 09:59:51;;;;;;;1.37;1.27;;;;;;;;;;1879221;76;26215;-29
2021/12/28 10:02:18;;;;;;;1.60;1.50;;;;;;;;;;1870003;76;26755;-30
2021/12/28 10:04:58;;;;;;;2.15;1.40;;;;;;;;;;1874432;76;26347;-28
2021/12/28 10:07:27;;;;;;;1.72;1.60;;;;;;;;;;1874134;76;26887;-29
2021/12/28 10:09:55;;;;;;;5.17;1.57;;;;;;;;;;1873630;76;26272;-29
2021/12/28 10:12:32;;;;;;;4.50;1.55;;;;;;;;;;1874628;76;26298;-30
2021/12/28 10:15:01;;;;;;;1.70;1.60;;;;;;;;;;1873454;76;26306;-29
2021/12/28 10:17:30;;;;;;;1.27;1.25;;;;;;;;;;1875010;76;27573;-29
2021/12/28 10:19:58;;;;;;;2.40;1.42;;;;;;;;;;1879001;76;26278;-28
2021/12/28 10:22:39;;;;;;;2.90;1.42;;;;;;;;;;1864507;76;26793;-29
2021/12/28 10:25:12;;;;;;;2.55;1.50;;;;;;;;;;1856724;76;26757;-28
2021/12/28 10:27:41;;;;;;;2.45;1.35;;;;;;;;;;1857840;77;26838;-29
2021/12/28 10:30:16;;;;;;;1.40;1.30;;;;;;;;;;1848517;77;26233;-29
2021/12/28 10:32:44;;;;;;;3.17;1.50;;;;;;;;;;1852116;77;26267;-29
2021/12/28 10:35:13;;;;;;;2.60;1.60;;;;;;;;;;1850774;77;26289;-29
2021/12/28 10:37:42;;;;;;;2.70;1.30;;;;;;;;;;1855891;77;26255;-29
2021/12/28 10:40:11;;;;;;;3.42;1.62;;;;;;;;;;1848431;77;26273;-29
2021/12/28 10:42:48;;;;;;;4.87;1.40;;;;;;;;;;1856113;76;26702;-29
2021/12/28 10:45:20;;;;;;;1.65;1.50;;;;;;;;;;1851568;77;26917;-29
2021/12/28 10:47:49;;;;;;;2.95;1.52;;;;;;;;;;1854770;77;26356;-29
2021/12/28 10:50:23;;;;;;;3.40;1.57;;;;;;;;;;1856167;77;26253;-29
2021/12/28 10:53:00;;;;;;;1.67;1.57;;;;;;;;;;1857870;76;25866;-29
2021/12/28 10:55:22;;;;;;;5.45;1.40;;;;;;;;;;1855677;76;26747;-29
2021/12/28 10:57:50;;;;;;;3.10;1.72;;;;;;;;;;1857342;77;26243;-29
2021/12/28 11:00:22;;;;;;;1.72;1.62;;;;;;;;;;1854124;77;26723;-29
2021/12/28 11:02:50;;;;;;;2.77;1.60;;;;;;;;;;1833733;77;26758;-29
2021/12/28 11:05:33;;;;;;;2.27;1.52;;;;;;;;;;1854670;76;26342;-29
2021/12/28 11:08:01;;;;;;;4.53;1.85;;;;;;;;;;1843646;76;26246;-29
2021/12/28 11:10:29;;;;;;;7.50;1.50;;;;;;;;;;1839114;77;26247;-29
2021/12/28 11:12:57;;;;;;;1.90;1.80;;;;;;;;;;1835580;77;27537;-29
2021/12/28 11:15:25;;;;;;;1.85;1.72;;;;;;;;;;1845511;77;26338;-29
2021/12/28 11:17:53;;;;;;;1.82;1.72;;;;;;;;;;1847628;77;26265;-29
2021/12/28 11:20:30;;;;;;;1.90;1.80;;;;;;;;;;1852580;76;26352;-29
2021/12/28 11:23:10;;;;;;;1.77;1.67;;;;;;;;;;1845924;76;26760;-29
2021/12/28 11:25:38;;;;;;;6.05;2.10;;;;;;;;;;1858429;76;26269;-29
2021/12/28 11:28:23;;;;;;;1.92;1.80;;;;;;;;;;1871811;76;26567;-29
2021/12/28 11:30:52;;;;;;;2.87;2.17;;;;;;;;;;1875244;76;26294;-30
2021/12/28 11:33:19;;;;;;;1.98;1.80;;;;;;;;;;1869783;76;26207;-29
2021/12/28 11:35:46;;;;;;;2.05;1.85;;;;;;;;;;1879066;76;26255;-29
2021/12/28 11:38:14;;;;;;;2.30;1.80;;;;;;;;;;1872098;76;25689;-29
2021/12/28 11:40:41;;;;;;;3.75;1.90;;;;;;;;;;1847760;77;26258;-29
2021/12/28 11:43:08;;;;;;;5.72;2.00;;;;;;;;;;1847683;77;26219;-29
2021/12/28 11:45:36;;;;;;;3.12;1.80;;;;;;;;;;1856205;76;26363;-29
2021/12/28 11:48:03;;;;;;;4.60;1.57;;;;;;;;;;1871346;76;26766;-29
2021/12/28 11:50:31;;;;;;;1.75;1.65;;;;;;;;;;1871172;76;26316;-29
2021/12/28 11:52:58;;;;;;;1.95;1.70;;;;;;;;;;1871306;76;26325;-29
2021/12/28 11:55:25;;;;;;;3.02;1.65;;;;;;;;;;1870986;76;26266;-29
2021/12/28 11:57:53;;;;;;;2.60;2.35;;;;;;;;;;1877794;75;26709;-29
2021/12/28 12:00:22;;;;;;;5.90;1.95;;;;;;;;;;1877566;75;26308;-29
2021/12/28 12:02:54;;;;;;;3.27;1.92;;;;;;;;;;1873441;76;26277;-29
2021/12/28 12:05:26;;;;;;;4.03;2.10;;;;;;;;;;1880985;76;26279;-29
2021/12/28 12:08:00;;;;;;;2.10;1.87;;;;;;;;;;1879894;76;26328;-29
2021/12/28 12:10:30;;;;;;;2.22;1.82;;;;;;;;;;1864402;76;26344;-29
2021/12/28 12:12:58;;;;;;;2.02;1.92;;;;;;;;;;1876505;76;26295;-29
2021/12/28 12:15:27;;;;;;;2.10;1.90;;;;;;;;;;1876283;76;26332;-29
2021/12/28 12:18:00;;;;;;;3.50;1.90;;;;;;;;;;1877216;75;26339;-29
2021/12/28 12:20:36;;;;;;;3.42;2.05;;;;;;;;;;1871458;76;26226;-29
2021/12/28 12:23:15;;;;;;;3.02;1.62;;;;;;;;;;1872078;76;26265;-29
2021/12/28 12:25:49;;;;;;;2.02;1.82;;;;;;;;;;1880682;76;26285;-29
2021/12/28 12:28:13;;;;;;;2.52;2.22;;;;;;;;;;1856721;77;26268;-30
2021/12/28 12:30:44;;;;;;;1.60;1.50;;;;;;;;;;1858457;77;26427;-30
2021/12/28 12:33:13;;;;;;;2.08;1.70;;;;;;;;;;1858416;77;26276;-30
2021/12/28 12:35:44;;;;;;;2.22;1.50;;;;;;;;;;1871425;74;26301;-29
2021/12/28 12:38:16;;;;;;;2.20;1.80;;;;;;;;;;1885939;76;26203;-29
2021/12/28 12:40:53;;;;;;;3.20;1.60;;;;;;;;;;1886009;76;26312;-29
2021/12/28 12:43:22;;;;;;;1.80;1.70;;;;;;;;;;1886128;76;26261;-29
2021/12/28 12:45:57;;;;;;;1.80;1.70;;;;;;;;;;1886794;76;26729;-29
2021/12/28 12:48:32;;;;;;;2.08;1.50;;;;;;;;;;1890097;76;26339;-29
2021/12/28 12:51:17;;;;;;;1.65;1.55;;;;;;;;;;1890099;76;26350;-29
2021/12/28 12:53:46;;;;;;;1.75;1.60;;;;;;;;;;1890177;76;26262;-29
2021/12/28 12:56:18;;;;;;;1.75;1.65;;;;;;;;;;1889306;76;26769;-30
2021/12/28 12:58:46;;;;;;;1.80;1.50;;;;;;;;;;1886238;76;26714;-29
2021/12/28 13:01:24;;;;;;;2.27;1.70;;;;;;;;;;1864560;76;26302;-30
2021/12/28 13:03:51;;;;;;;1.80;1.70;;;;;;;;;;1878548;76;26257;-29
2021/12/28 13:06:32;;;;;;;1.82;1.47;;;;;;;;;;1890090;76;26371;-30
2021/12/28 13:08:59;;;;;;;4.78;1.60;;;;;;;;;;1839265;76;26274;-29
2021/12/28 13:11:30;;;;;;;1.57;1.47;;;;;;;;;;1886257;76;26364;-29
2021/12/28 13:13:57;;;;;;;2.60;1.70;;;;;;;;;;1886248;76;26306;-29
2021/12/28 13:16:25;;;;;;;1.60;1.50;;;;;;;;;;1886930;76;26242;-30
2021/12/28 13:18:54;;;;;;;1.60;1.50;;;;;;;;;;1890337;76;26282;-29
2021/12/28 13:21:22;;;;;;;1.70;1.60;;;;;;;;;;1887323;76;26701;-29
2021/12/28 13:24:09;;;;;;;1.62;1.40;;;;;;;;;;1881317;75;26359;-29
2021/12/28 13:26:46;;;;;;;1.60;1.50;;;;;;;;;;1874731;76;26322;-30
2021/12/28 13:29:30;;;;;;;1.82;1.70;;;;;;;;;;1880935;76;26642;-30
2021/12/28 13:32:16;;;;;;;2.25;1.67;;;;;;;;;;1874297;76;26239;-30
2021/12/28 13:35:00;;;;;;;1.80;1.70;;;;;;;;;;1864703;76;26249;-30
2021/12/28 13:37:32;;;;;;;3.25;1.50;;;;;;;;;;1865064;76;26284;-29
2021/12/28 13:40:13;;;;;;;1.75;1.65;;;;;;;;;;1849947;76;26257;-29
2021/12/28 13:42:42;;;;;;;1.75;1.60;;;;;;;;;;1842764;78;26959;-30
2021/12/28 13:45:11;;;;;;;1.60;1.50;;;;;;;;;;1851088;76;26262;-30
2021/12/28 13:47:39;;;;;;;1.98;1.57;;;;;;;;;;1868495;77;26297;-30
2021/12/28 13:50:08;;;;;;;1.55;1.45;;;;;;;;;;1868555;77;26246;-30
2021/12/28 13:52:46;;;;;;;1.55;1.45;;;;;;;;;;1871231;76;26595;-29
2021/12/28 13:55:15;;;;;;;2.20;1.45;;;;;;;;;;1876585;75;26239;-30
2021/12/28 13:57:42;;;;;;;1.95;1.50;;;;;;;;;;1884480;75;26779;-30
2021/12/28 14:00:11;;;;;;;1.62;1.52;;;;;;;;;;1895860;75;26277;-30
2021/12/28 14:02:40;;;;;;;2.50;1.50;;;;;;;;;;1886852;75;26391;-30
2021/12/28 14:05:09;;;;;;;2.33;1.50;;;;;;;;;;1881151;76;26799;-30
2021/12/28 14:07:37;;;;;;;1.40;1.40;;;;;;;;;;1880610;75;26858;-31
2021/12/28 14:10:05;;;;;;;1.62;1.50;;;;;;;;;;1881195;76;26319;-30
2021/12/28 14:12:33;;;;;;;2.77;1.50;;;;;;;;;;1880947;76;26798;-30
2021/12/28 14:15:00;;;;;;;1.62;1.45;;;;;;;;;;1880877;76;26284;-29
2021/12/28 14:17:29;;;;;;;1.77;1.30;;;;;;;;;;1880716;76;26203;-29
2021/12/28 14:19:59;;;;;;;1.32;1.32;;;;;;;;;;1881089;76;26761;-30
2021/12/28 14:22:27;;;;;;;2.77;1.52;;;;;;;;;;1881020;76;26570;-30
2021/12/28 14:24:55;;;;;;;2.40;1.45;;;;;;;;;;1881037;76;26709;-30
2021/12/28 14:27:27;;;;;;;1.60;1.50;;;;;;;;;;1877830;76;26602;-30
2021/12/28 14:30:01;;;;;;;1.55;1.42;;;;;;;;;;1875418;76;26371;-30
2021/12/28 14:32:34;;;;;;;1.32;1.22;;;;;;;;;;1876501;76;26745;-30
2021/12/28 14:35:02;;;;;;;1.20;1.20;;;;;;;;;;1850933;76;26265;-30
2021/12/28 14:37:31;;;;;;;1.50;1.40;;;;;;;;;;1880907;76;26260;-30
2021/12/28 14:39:58;;;;;;;1.72;1.62;;;;;;;;;;1880830;76;26253;-30
2021/12/28 14:42:30;;;;;;;1.57;1.22;;;;;;;;;;1881082;76;26190;-30
2021/12/28 14:45:02;;;;;;;1.70;1.30;;;;;;;;;;1879402;75;26258;-30
2021/12/28 14:47:30;;;;;;;2.58;1.52;;;;;;;;;;1868517;77;26647;-29
2021/12/28 14:50:00;;;;;;;1.67;1.50;;;;;;;;;;1868270;77;26316;-29
2021/12/28 14:52:32;;;;;;;1.60;1.40;;;;;;;;;;1868375;77;25620;-30
2021/12/28 14:55:10;;;;;;;1.50;1.40;;;;;;;;;;1868580;77;26331;-29